sensor_id;sensor_type;location;lat;lon;timestamp;P1;durP1;ratioP1;P2;durP2;ratioP2
61144;SDS011;47026;51.208;3.288;2022-07-23T00:00:17;7.80;;;4.68;;
61144;SDS011;47026;51.208;3.288;2022-07-23T00:02:44;8.98;;;4.75;;
61144;SDS011;47026;51.208;3.288;2022-07-23T00:05:10;8.65;;;4.93;;
61144;SDS011;47026;51.208;3.288;2022-07-23T00:10:02;6.10;;;3.78;;
61144;SDS011;47026;51.208;3.288;2022-07-23T00:12:28;4.55;;;2.70;;
61144;SDS011;47026;51.208;3.288;2022-07-23T00:17:20;4.18;;;2.75;;
61144;SDS011;47026;51.208;3.288;2022-07-23T00:19:46;6.82;;;3.35;;
61144;SDS011;47026;51.208;3.288;2022-07-23T00:24:37;6.25;;;4.30;;
61144;SDS011;47026;51.208;3.288;2022-07-23T00:29:29;6.37;;;4.32;;
61144;SDS011;47026;51.208;3.288;2022-07-23T00:34:21;6.80;;;4.00;;
61144;SDS011;47026;51.208;3.288;2022-07-23T00:39:13;8.88;;;4.47;;
61144;SDS011;47026;51.208;3.288;2022-07-23T00:41:39;8.48;;;5.35;;
61144;SDS011;47026;51.208;3.288;2022-07-23T00:46:52;8.55;;;5.50;;
61144;SDS011;47026;51.208;3.288;2022-07-23T00:49:38;6.53;;;4.05;;
61144;SDS011;47026;51.208;3.288;2022-07-23T00:56:57;8.20;;;3.95;;
61144;SDS011;47026;51.208;3.288;2022-07-23T00:59:23;6.62;;;4.10;;
61144;SDS011;47026;51.208;3.288;2022-07-23T01:04:15;8.52;;;4.40;;
61144;SDS011;47026;51.208;3.288;2022-07-23T01:06:41;7.10;;;4.70;;
61144;SDS011;47026;51.208;3.288;2022-07-23T01:09:09;5.32;;;3.55;;
61144;SDS011;47026;51.208;3.288;2022-07-23T01:11:36;8.55;;;3.47;;
61144;SDS011;47026;51.208;3.288;2022-07-23T01:14:10;8.52;;;4.35;;
61144;SDS011;47026;51.208;3.288;2022-07-23T01:16:37;9.18;;;3.92;;
61144;SDS011;47026;51.208;3.288;2022-07-23T01:19:04;6.43;;;4.18;;
61144;SDS011;47026;51.208;3.288;2022-07-23T01:21:32;6.32;;;3.92;;
61144;SDS011;47026;51.208;3.288;2022-07-23T01:24:00;7.32;;;4.68;;
61144;SDS011;47026;51.208;3.288;2022-07-23T01:28:52;6.78;;;4.10;;
61144;SDS011;47026;51.208;3.288;2022-07-23T01:33:45;7.85;;;4.28;;
61144;SDS011;47026;51.208;3.288;2022-07-23T01:38:36;8.57;;;4.70;;
61144;SDS011;47026;51.208;3.288;2022-07-23T01:43:28;7.40;;;4.05;;
61144;SDS011;47026;51.208;3.288;2022-07-23T01:48:20;4.80;;;3.30;;
61144;SDS011;47026;51.208;3.288;2022-07-23T01:53:12;8.98;;;4.18;;
61144;SDS011;47026;51.208;3.288;2022-07-23T01:55:39;7.07;;;4.07;;
61144;SDS011;47026;51.208;3.288;2022-07-23T02:00:31;9.13;;;5.00;;
61144;SDS011;47026;51.208;3.288;2022-07-23T02:02:57;7.43;;;4.50;;
61144;SDS011;47026;51.208;3.288;2022-07-23T02:05:23;6.72;;;4.00;;
61144;SDS011;47026;51.208;3.288;2022-07-23T02:07:57;7.20;;;4.40;;
61144;SDS011;47026;51.208;3.288;2022-07-23T02:10:23;7.62;;;4.45;;
61144;SDS011;47026;51.208;3.288;2022-07-23T02:12:50;7.85;;;5.00;;
61144;SDS011;47026;51.208;3.288;2022-07-23T02:17:42;7.50;;;4.80;;
61144;SDS011;47026;51.208;3.288;2022-07-23T02:22:34;13.40;;;7.40;;
61144;SDS011;47026;51.208;3.288;2022-07-23T02:25:00;8.82;;;5.62;;
61144;SDS011;47026;51.208;3.288;2022-07-23T02:29:53;10.13;;;6.30;;
61144;SDS011;47026;51.208;3.288;2022-07-23T02:37:12;12.23;;;7.53;;
61144;SDS011;47026;51.208;3.288;2022-07-23T02:39:39;14.05;;;6.68;;
61144;SDS011;47026;51.208;3.288;2022-07-23T02:42:05;12.45;;;7.78;;
61144;SDS011;47026;51.208;3.288;2022-07-23T02:46:57;14.18;;;8.23;;
61144;SDS011;47026;51.208;3.288;2022-07-23T02:51:48;15.07;;;8.40;;
61144;SDS011;47026;51.208;3.288;2022-07-23T02:56:40;16.17;;;8.82;;
61144;SDS011;47026;51.208;3.288;2022-07-23T02:59:06;17.73;;;8.75;;
61144;SDS011;47026;51.208;3.288;2022-07-23T03:03:58;15.20;;;9.35;;
61144;SDS011;47026;51.208;3.288;2022-07-23T03:08:49;15.57;;;8.60;;
61144;SDS011;47026;51.208;3.288;2022-07-23T03:13:41;14.38;;;8.35;;
61144;SDS011;47026;51.208;3.288;2022-07-23T03:18:33;13.85;;;8.50;;
61144;SDS011;47026;51.208;3.288;2022-07-23T03:20:59;12.50;;;6.95;;
61144;SDS011;47026;51.208;3.288;2022-07-23T03:23:25;10.30;;;6.78;;
61144;SDS011;47026;51.208;3.288;2022-07-23T03:28:17;11.40;;;5.87;;
61144;SDS011;47026;51.208;3.288;2022-07-23T03:30:47;10.65;;;6.22;;
61144;SDS011;47026;51.208;3.288;2022-07-23T03:33:16;11.45;;;6.93;;
61144;SDS011;47026;51.208;3.288;2022-07-23T03:35:43;12.30;;;7.22;;
61144;SDS011;47026;51.208;3.288;2022-07-23T03:38:10;13.13;;;7.47;;
61144;SDS011;47026;51.208;3.288;2022-07-23T03:43:01;15.02;;;8.32;;
61144;SDS011;47026;51.208;3.288;2022-07-23T03:47:53;13.93;;;8.65;;
61144;SDS011;47026;51.208;3.288;2022-07-23T03:52:44;13.25;;;7.53;;
61144;SDS011;47026;51.208;3.288;2022-07-23T03:57:36;17.12;;;8.93;;
61144;SDS011;47026;51.208;3.288;2022-07-23T04:02:30;11.23;;;6.85;;
61144;SDS011;47026;51.208;3.288;2022-07-23T04:07:22;12.63;;;7.28;;
61144;SDS011;47026;51.208;3.288;2022-07-23T04:12:14;11.00;;;6.90;;
61144;SDS011;47026;51.208;3.288;2022-07-23T04:14:40;12.60;;;7.45;;
61144;SDS011;47026;51.208;3.288;2022-07-23T04:19:31;16.00;;;9.65;;
61144;SDS011;47026;51.208;3.288;2022-07-23T04:24:23;14.93;;;8.57;;
61144;SDS011;47026;51.208;3.288;2022-07-23T04:29:15;15.75;;;9.13;;
61144;SDS011;47026;51.208;3.288;2022-07-23T04:34:06;15.10;;;8.70;;
61144;SDS011;47026;51.208;3.288;2022-07-23T04:36:32;16.52;;;8.55;;
61144;SDS011;47026;51.208;3.288;2022-07-23T04:41:24;14.68;;;8.57;;
61144;SDS011;47026;51.208;3.288;2022-07-23T04:46:16;13.25;;;8.25;;
61144;SDS011;47026;51.208;3.288;2022-07-23T04:51:07;13.18;;;7.68;;
61144;SDS011;47026;51.208;3.288;2022-07-23T04:55:59;14.25;;;7.90;;
61144;SDS011;47026;51.208;3.288;2022-07-23T04:58:25;15.80;;;9.07;;
61144;SDS011;47026;51.208;3.288;2022-07-23T05:03:17;13.70;;;7.10;;
61144;SDS011;47026;51.208;3.288;2022-07-23T05:05:43;14.80;;;7.53;;
61144;SDS011;47026;51.208;3.288;2022-07-23T05:10:34;14.85;;;8.30;;
61144;SDS011;47026;51.208;3.288;2022-07-23T05:15:26;13.20;;;8.27;;
61144;SDS011;47026;51.208;3.288;2022-07-23T05:20:17;12.48;;;7.18;;
61144;SDS011;47026;51.208;3.288;2022-07-23T05:22:43;15.10;;;9.23;;
61144;SDS011;47026;51.208;3.288;2022-07-23T05:27:35;12.02;;;6.85;;
61144;SDS011;47026;51.208;3.288;2022-07-23T05:30:40;11.77;;;7.30;;
61144;SDS011;47026;51.208;3.288;2022-07-23T05:33:05;13.88;;;7.40;;
61144;SDS011;47026;51.208;3.288;2022-07-23T05:35:33;13.25;;;7.70;;
61144;SDS011;47026;51.208;3.288;2022-07-23T05:37:59;13.52;;;6.93;;
61144;SDS011;47026;51.208;3.288;2022-07-23T05:42:50;15.90;;;8.25;;
61144;SDS011;47026;51.208;3.288;2022-07-23T05:47:46;16.90;;;8.40;;
61144;SDS011;47026;51.208;3.288;2022-07-23T05:50:14;14.57;;;8.07;;
61144;SDS011;47026;51.208;3.288;2022-07-23T05:52:41;15.38;;;8.48;;
61144;SDS011;47026;51.208;3.288;2022-07-23T05:55:08;15.85;;;8.55;;
61144;SDS011;47026;51.208;3.288;2022-07-23T05:57:35;14.82;;;8.40;;
61144;SDS011;47026;51.208;3.288;2022-07-23T06:00:03;15.43;;;8.85;;
61144;SDS011;47026;51.208;3.288;2022-07-23T06:02:30;13.85;;;7.47;;
61144;SDS011;47026;51.208;3.288;2022-07-23T06:04:55;15.20;;;8.38;;
61144;SDS011;47026;51.208;3.288;2022-07-23T06:07:21;15.85;;;8.30;;
61144;SDS011;47026;51.208;3.288;2022-07-23T06:09:47;16.58;;;7.53;;
61144;SDS011;47026;51.208;3.288;2022-07-23T06:12:14;13.68;;;8.80;;
61144;SDS011;47026;51.208;3.288;2022-07-23T06:14:41;16.05;;;8.68;;
61144;SDS011;47026;51.208;3.288;2022-07-23T06:17:07;14.02;;;8.40;;
61144;SDS011;47026;51.208;3.288;2022-07-23T06:19:34;13.98;;;8.02;;
61144;SDS011;47026;51.208;3.288;2022-07-23T06:21:59;14.93;;;8.73;;
61144;SDS011;47026;51.208;3.288;2022-07-23T06:24:25;13.25;;;7.32;;
61144;SDS011;47026;51.208;3.288;2022-07-23T06:26:51;13.68;;;7.65;;
61144;SDS011;47026;51.208;3.288;2022-07-23T06:29:17;12.77;;;8.10;;
61144;SDS011;47026;51.208;3.288;2022-07-23T06:31:43;13.40;;;8.73;;
61144;SDS011;47026;51.208;3.288;2022-07-23T06:34:09;16.33;;;8.15;;
61144;SDS011;47026;51.208;3.288;2022-07-23T06:36:35;14.00;;;8.27;;
61144;SDS011;47026;51.208;3.288;2022-07-23T06:39:00;12.98;;;8.15;;
61144;SDS011;47026;51.208;3.288;2022-07-23T06:41:26;13.88;;;7.72;;
61144;SDS011;47026;51.208;3.288;2022-07-23T06:43:52;12.55;;;7.40;;
61144;SDS011;47026;51.208;3.288;2022-07-23T06:46:18;14.80;;;7.40;;
61144;SDS011;47026;51.208;3.288;2022-07-23T06:48:46;14.93;;;7.43;;
61144;SDS011;47026;51.208;3.288;2022-07-23T06:51:11;12.18;;;7.43;;
61144;SDS011;47026;51.208;3.288;2022-07-23T06:53:38;13.40;;;7.12;;
61144;SDS011;47026;51.208;3.288;2022-07-23T06:56:04;11.85;;;8.00;;
61144;SDS011;47026;51.208;3.288;2022-07-23T06:58:29;14.52;;;7.35;;
61144;SDS011;47026;51.208;3.288;2022-07-23T07:00:55;10.88;;;7.78;;
61144;SDS011;47026;51.208;3.288;2022-07-23T07:03:22;14.20;;;8.07;;
61144;SDS011;47026;51.208;3.288;2022-07-23T07:05:48;12.00;;;7.90;;
61144;SDS011;47026;51.208;3.288;2022-07-23T07:08:14;11.18;;;7.78;;
61144;SDS011;47026;51.208;3.288;2022-07-23T07:10:40;9.38;;;7.03;;
61144;SDS011;47026;51.208;3.288;2022-07-23T07:13:06;11.80;;;7.50;;
61144;SDS011;47026;51.208;3.288;2022-07-23T07:15:32;11.60;;;7.22;;
61144;SDS011;47026;51.208;3.288;2022-07-23T07:17:58;12.05;;;7.45;;
61144;SDS011;47026;51.208;3.288;2022-07-23T07:20:24;12.30;;;7.37;;
61144;SDS011;47026;51.208;3.288;2022-07-23T07:22:50;13.38;;;8.88;;
61144;SDS011;47026;51.208;3.288;2022-07-23T07:25:16;11.68;;;8.23;;
61144;SDS011;47026;51.208;3.288;2022-07-23T07:27:42;12.23;;;8.40;;
61144;SDS011;47026;51.208;3.288;2022-07-23T07:30:09;12.20;;;7.70;;
61144;SDS011;47026;51.208;3.288;2022-07-23T07:32:35;10.38;;;7.57;;
61144;SDS011;47026;51.208;3.288;2022-07-23T07:35:02;11.35;;;7.60;;
61144;SDS011;47026;51.208;3.288;2022-07-23T07:37:29;11.35;;;7.75;;
61144;SDS011;47026;51.208;3.288;2022-07-23T07:39:55;11.00;;;7.25;;
61144;SDS011;47026;51.208;3.288;2022-07-23T07:42:21;9.27;;;7.20;;
61144;SDS011;47026;51.208;3.288;2022-07-23T07:44:47;9.93;;;6.82;;
61144;SDS011;47026;51.208;3.288;2022-07-23T07:47:13;11.55;;;6.82;;
61144;SDS011;47026;51.208;3.288;2022-07-23T07:49:40;11.10;;;7.62;;
61144;SDS011;47026;51.208;3.288;2022-07-23T07:52:07;8.05;;;7.18;;
61144;SDS011;47026;51.208;3.288;2022-07-23T07:54:33;11.25;;;7.62;;
61144;SDS011;47026;51.208;3.288;2022-07-23T07:56:59;10.00;;;7.43;;
61144;SDS011;47026;51.208;3.288;2022-07-23T07:59:28;13.27;;;8.00;;
61144;SDS011;47026;51.208;3.288;2022-07-23T08:01:54;10.55;;;7.55;;
61144;SDS011;47026;51.208;3.288;2022-07-23T08:04:20;11.57;;;8.07;;
61144;SDS011;47026;51.208;3.288;2022-07-23T08:06:46;9.25;;;7.35;;
61144;SDS011;47026;51.208;3.288;2022-07-23T08:09:11;12.73;;;8.32;;
61144;SDS011;47026;51.208;3.288;2022-07-23T08:11:37;13.00;;;7.25;;
61144;SDS011;47026;51.208;3.288;2022-07-23T08:14:03;12.93;;;7.47;;
61144;SDS011;47026;51.208;3.288;2022-07-23T08:16:28;10.40;;;7.62;;
61144;SDS011;47026;51.208;3.288;2022-07-23T08:18:58;14.65;;;7.65;;
61144;SDS011;47026;51.208;3.288;2022-07-23T08:21:23;9.43;;;7.60;;
61144;SDS011;47026;51.208;3.288;2022-07-23T08:23:49;11.23;;;7.70;;
61144;SDS011;47026;51.208;3.288;2022-07-23T08:26:14;12.00;;;7.20;;
61144;SDS011;47026;51.208;3.288;2022-07-23T08:28:40;11.50;;;7.32;;
61144;SDS011;47026;51.208;3.288;2022-07-23T08:31:06;10.73;;;7.65;;
61144;SDS011;47026;51.208;3.288;2022-07-23T08:33:31;11.60;;;8.32;;
61144;SDS011;47026;51.208;3.288;2022-07-23T08:35:57;14.63;;;8.65;;
61144;SDS011;47026;51.208;3.288;2022-07-23T08:38:23;10.65;;;8.65;;
61144;SDS011;47026;51.208;3.288;2022-07-23T08:40:53;11.00;;;8.32;;
61144;SDS011;47026;51.208;3.288;2022-07-23T08:43:26;12.35;;;8.95;;
61144;SDS011;47026;51.208;3.288;2022-07-23T08:45:53;10.07;;;8.05;;
61144;SDS011;47026;51.208;3.288;2022-07-23T08:48:22;9.75;;;7.90;;
61144;SDS011;47026;51.208;3.288;2022-07-23T08:50:51;12.13;;;8.07;;
61144;SDS011;47026;51.208;3.288;2022-07-23T08:53:20;11.10;;;9.07;;
61144;SDS011;47026;51.208;3.288;2022-07-23T08:55:47;12.68;;;8.98;;
61144;SDS011;47026;51.208;3.288;2022-07-23T08:58:15;13.15;;;9.07;;
61144;SDS011;47026;51.208;3.288;2022-07-23T09:00:42;13.80;;;8.65;;
61144;SDS011;47026;51.208;3.288;2022-07-23T09:03:15;18.12;;;10.07;;
61144;SDS011;47026;51.208;3.288;2022-07-23T09:05:42;12.35;;;9.45;;
61144;SDS011;47026;51.208;3.288;2022-07-23T09:08:12;15.00;;;9.93;;
61144;SDS011;47026;51.208;3.288;2022-07-23T09:16:12;13.98;;;10.00;;
61144;SDS011;47026;51.208;3.288;2022-07-23T09:18:56;13.48;;;9.93;;
61144;SDS011;47026;51.208;3.288;2022-07-23T09:21:26;13.02;;;9.38;;
61144;SDS011;47026;51.208;3.288;2022-07-23T09:24:01;13.52;;;9.70;;
61144;SDS011;47026;51.208;3.288;2022-07-23T09:34:08;9.85;;;7.68;;
61144;SDS011;47026;51.208;3.288;2022-07-23T09:36:35;13.27;;;8.90;;
61144;SDS011;47026;51.208;3.288;2022-07-23T09:39:01;11.65;;;8.30;;
61144;SDS011;47026;51.208;3.288;2022-07-23T09:41:41;15.98;;;9.43;;
61144;SDS011;47026;51.208;3.288;2022-07-23T09:44:10;10.70;;;8.48;;
61144;SDS011;47026;51.208;3.288;2022-07-23T09:46:38;11.55;;;8.73;;
61144;SDS011;47026;51.208;3.288;2022-07-23T09:49:38;12.32;;;8.60;;
61144;SDS011;47026;51.208;3.288;2022-07-23T09:51:58;11.18;;;8.35;;
61144;SDS011;47026;51.208;3.288;2022-07-23T09:54:27;10.75;;;7.43;;
61144;SDS011;47026;51.208;3.288;2022-07-23T09:56:57;13.05;;;9.00;;
61144;SDS011;47026;51.208;3.288;2022-07-23T09:59:26;10.98;;;8.60;;
61144;SDS011;47026;51.208;3.288;2022-07-23T10:01:56;11.40;;;8.88;;
61144;SDS011;47026;51.208;3.288;2022-07-23T10:04:25;11.18;;;8.55;;
61144;SDS011;47026;51.208;3.288;2022-07-23T10:06:53;15.20;;;10.02;;
61144;SDS011;47026;51.208;3.288;2022-07-23T10:09:24;12.98;;;9.38;;
61144;SDS011;47026;51.208;3.288;2022-07-23T10:11:55;11.32;;;7.95;;
61144;SDS011;47026;51.208;3.288;2022-07-23T10:14:27;10.57;;;7.93;;
61144;SDS011;47026;51.208;3.288;2022-07-23T10:16:56;9.18;;;7.65;;
61144;SDS011;47026;51.208;3.288;2022-07-23T10:19:22;9.23;;;7.50;;
61144;SDS011;47026;51.208;3.288;2022-07-23T10:21:49;13.20;;;8.35;;
61144;SDS011;47026;51.208;3.288;2022-07-23T10:25:08;11.18;;;7.60;;
61144;SDS011;47026;51.208;3.288;2022-07-23T10:28:17;12.05;;;8.05;;
61144;SDS011;47026;51.208;3.288;2022-07-23T10:31:07;11.38;;;8.10;;
61144;SDS011;47026;51.208;3.288;2022-07-23T10:33:56;10.43;;;7.70;;
61144;SDS011;47026;51.208;3.288;2022-07-23T10:39:33;11.50;;;8.63;;
61144;SDS011;47026;51.208;3.288;2022-07-23T10:47:11;9.50;;;6.85;;
61144;SDS011;47026;51.208;3.288;2022-07-23T10:49:43;10.63;;;7.03;;
61144;SDS011;47026;51.208;3.288;2022-07-23T10:54:55;11.30;;;7.10;;
61144;SDS011;47026;51.208;3.288;2022-07-23T10:57:48;10.13;;;6.85;;
61144;SDS011;47026;51.208;3.288;2022-07-23T11:00:16;11.40;;;8.75;;
61144;SDS011;47026;51.208;3.288;2022-07-23T11:02:46;10.43;;;8.25;;
61144;SDS011;47026;51.208;3.288;2022-07-23T11:05:24;9.93;;;7.20;;
61144;SDS011;47026;51.208;3.288;2022-07-23T11:13:42;10.27;;;7.97;;
61144;SDS011;47026;51.208;3.288;2022-07-23T11:16:14;9.85;;;7.72;;
61144;SDS011;47026;51.208;3.288;2022-07-23T11:26:47;10.30;;;7.35;;
61144;SDS011;47026;51.208;3.288;2022-07-23T11:32:03;9.32;;;6.68;;
61144;SDS011;47026;51.208;3.288;2022-07-23T11:34:43;9.70;;;7.28;;
61144;SDS011;47026;51.208;3.288;2022-07-23T11:37:31;13.27;;;8.18;;
61144;SDS011;47026;51.208;3.288;2022-07-23T11:40:10;10.68;;;7.55;;
61144;SDS011;47026;51.208;3.288;2022-07-23T11:42:59;8.32;;;7.25;;
61144;SDS011;47026;51.208;3.288;2022-07-23T11:45:26;11.20;;;7.40;;
61144;SDS011;47026;51.208;3.288;2022-07-23T11:50:26;10.15;;;7.18;;
61144;SDS011;47026;51.208;3.288;2022-07-23T11:52:52;10.50;;;6.95;;
61144;SDS011;47026;51.208;3.288;2022-07-23T11:55:19;9.60;;;5.95;;
61144;SDS011;47026;51.208;3.288;2022-07-23T11:57:46;10.15;;;7.22;;
61144;SDS011;47026;51.208;3.288;2022-07-23T12:00:16;13.27;;;8.38;;
61144;SDS011;47026;51.208;3.288;2022-07-23T12:02:45;12.18;;;7.43;;
61144;SDS011;47026;51.208;3.288;2022-07-23T12:05:17;10.05;;;8.23;;
61144;SDS011;47026;51.208;3.288;2022-07-23T12:07:44;8.05;;;6.40;;
61144;SDS011;47026;51.208;3.288;2022-07-23T12:12:52;8.73;;;6.97;;
61144;SDS011;47026;51.208;3.288;2022-07-23T12:15:20;8.90;;;7.37;;
61144;SDS011;47026;51.208;3.288;2022-07-23T12:17:49;12.20;;;7.05;;
61144;SDS011;47026;51.208;3.288;2022-07-23T12:20:17;9.02;;;7.07;;
61144;SDS011;47026;51.208;3.288;2022-07-23T12:22:47;9.32;;;7.05;;
61144;SDS011;47026;51.208;3.288;2022-07-23T12:25:16;8.43;;;6.95;;
61144;SDS011;47026;51.208;3.288;2022-07-23T12:27:44;10.60;;;7.35;;
61144;SDS011;47026;51.208;3.288;2022-07-23T12:30:27;10.52;;;7.00;;
61144;SDS011;47026;51.208;3.288;2022-07-23T12:32:56;9.00;;;7.15;;
61144;SDS011;47026;51.208;3.288;2022-07-23T12:35:29;8.15;;;6.35;;
61144;SDS011;47026;51.208;3.288;2022-07-23T12:37:59;8.30;;;6.80;;
61144;SDS011;47026;51.208;3.288;2022-07-23T12:43:26;10.25;;;6.60;;
61144;SDS011;47026;51.208;3.288;2022-07-23T12:48:35;9.10;;;6.62;;
61144;SDS011;47026;51.208;3.288;2022-07-23T12:51:06;9.48;;;6.60;;
61144;SDS011;47026;51.208;3.288;2022-07-23T12:56:21;11.98;;;7.18;;
61144;SDS011;47026;51.208;3.288;2022-07-23T13:01:42;12.32;;;8.07;;
61144;SDS011;47026;51.208;3.288;2022-07-23T13:04:20;9.95;;;8.00;;
61144;SDS011;47026;51.208;3.288;2022-07-23T13:06:49;7.82;;;6.68;;
61144;SDS011;47026;51.208;3.288;2022-07-23T13:09:17;10.02;;;8.27;;
61144;SDS011;47026;51.208;3.288;2022-07-23T13:11:44;11.63;;;8.63;;
61144;SDS011;47026;51.208;3.288;2022-07-23T13:14:12;8.98;;;6.62;;
61144;SDS011;47026;51.208;3.288;2022-07-23T13:16:39;10.30;;;8.27;;
61144;SDS011;47026;51.208;3.288;2022-07-23T13:19:05;8.68;;;6.75;;
61144;SDS011;47026;51.208;3.288;2022-07-23T13:21:32;12.65;;;9.05;;
61144;SDS011;47026;51.208;3.288;2022-07-23T13:23:58;8.30;;;7.12;;
61144;SDS011;47026;51.208;3.288;2022-07-23T13:26:24;10.68;;;8.50;;
61144;SDS011;47026;51.208;3.288;2022-07-23T13:28:51;13.50;;;11.15;;
61144;SDS011;47026;51.208;3.288;2022-07-23T13:31:17;18.85;;;12.63;;
61144;SDS011;47026;51.208;3.288;2022-07-23T13:33:44;11.60;;;9.43;;
61144;SDS011;47026;51.208;3.288;2022-07-23T13:36:11;15.10;;;10.70;;
61144;SDS011;47026;51.208;3.288;2022-07-23T13:38:37;14.35;;;10.80;;
61144;SDS011;47026;51.208;3.288;2022-07-23T13:41:04;12.10;;;9.68;;
61144;SDS011;47026;51.208;3.288;2022-07-23T13:43:31;11.95;;;10.40;;
61144;SDS011;47026;51.208;3.288;2022-07-23T13:45:58;13.27;;;9.65;;
61144;SDS011;47026;51.208;3.288;2022-07-23T13:48:24;11.50;;;10.30;;
61144;SDS011;47026;51.208;3.288;2022-07-23T13:50:51;14.10;;;11.02;;
61144;SDS011;47026;51.208;3.288;2022-07-23T13:53:18;14.55;;;11.20;;
61144;SDS011;47026;51.208;3.288;2022-07-23T13:55:45;19.67;;;10.98;;
61144;SDS011;47026;51.208;3.288;2022-07-23T13:58:12;19.08;;;12.23;;
61144;SDS011;47026;51.208;3.288;2022-07-23T14:00:40;13.05;;;10.88;;
61144;SDS011;47026;51.208;3.288;2022-07-23T14:03:08;12.20;;;10.93;;
61144;SDS011;47026;51.208;3.288;2022-07-23T14:05:34;15.55;;;11.02;;
61144;SDS011;47026;51.208;3.288;2022-07-23T14:08:00;17.27;;;12.37;;
61144;SDS011;47026;51.208;3.288;2022-07-23T14:10:26;17.45;;;12.48;;
61144;SDS011;47026;51.208;3.288;2022-07-23T14:12:52;18.77;;;14.55;;
61144;SDS011;47026;51.208;3.288;2022-07-23T14:15:23;18.58;;;13.73;;
61144;SDS011;47026;51.208;3.288;2022-07-23T14:17:51;18.15;;;14.18;;
61144;SDS011;47026;51.208;3.288;2022-07-23T14:20:18;20.10;;;13.82;;
61144;SDS011;47026;51.208;3.288;2022-07-23T14:22:48;17.92;;;13.77;;
61144;SDS011;47026;51.208;3.288;2022-07-23T14:25:15;18.50;;;13.68;;
61144;SDS011;47026;51.208;3.288;2022-07-23T14:27:41;20.83;;;15.48;;
61144;SDS011;47026;51.208;3.288;2022-07-23T14:30:08;18.98;;;14.70;;
61144;SDS011;47026;51.208;3.288;2022-07-23T14:32:35;16.02;;;13.05;;
61144;SDS011;47026;51.208;3.288;2022-07-23T14:35:02;19.00;;;13.77;;
61144;SDS011;47026;51.208;3.288;2022-07-23T14:37:29;19.08;;;14.32;;
61144;SDS011;47026;51.208;3.288;2022-07-23T14:39:55;17.17;;;15.32;;
61144;SDS011;47026;51.208;3.288;2022-07-23T14:42:21;20.37;;;15.75;;
61144;SDS011;47026;51.208;3.288;2022-07-23T14:44:47;20.77;;;16.17;;
61144;SDS011;47026;51.208;3.288;2022-07-23T14:47:13;19.35;;;14.30;;
61144;SDS011;47026;51.208;3.288;2022-07-23T14:49:39;19.08;;;14.40;;
61144;SDS011;47026;51.208;3.288;2022-07-23T14:52:05;21.62;;;16.12;;
61144;SDS011;47026;51.208;3.288;2022-07-23T14:54:32;20.40;;;15.55;;
61144;SDS011;47026;51.208;3.288;2022-07-23T14:56:59;20.92;;;14.77;;
61144;SDS011;47026;51.208;3.288;2022-07-23T14:59:26;24.37;;;15.50;;
61144;SDS011;47026;51.208;3.288;2022-07-23T15:01:52;16.83;;;13.82;;
61144;SDS011;47026;51.208;3.288;2022-07-23T15:04:18;16.20;;;13.43;;
61144;SDS011;47026;51.208;3.288;2022-07-23T15:06:44;15.10;;;13.02;;
61144;SDS011;47026;51.208;3.288;2022-07-23T15:09:10;18.55;;;14.70;;
61144;SDS011;47026;51.208;3.288;2022-07-23T15:11:37;18.02;;;13.75;;
61144;SDS011;47026;51.208;3.288;2022-07-23T15:14:03;17.98;;;14.98;;
61144;SDS011;47026;51.208;3.288;2022-07-23T15:16:29;19.42;;;14.63;;
61144;SDS011;47026;51.208;3.288;2022-07-23T15:18:56;18.17;;;13.23;;
61144;SDS011;47026;51.208;3.288;2022-07-23T15:21:22;19.10;;;15.13;;
61144;SDS011;47026;51.208;3.288;2022-07-23T15:23:47;16.48;;;12.55;;
61144;SDS011;47026;51.208;3.288;2022-07-23T15:26:14;17.23;;;14.05;;
61144;SDS011;47026;51.208;3.288;2022-07-23T15:28:40;19.08;;;15.02;;
61144;SDS011;47026;51.208;3.288;2022-07-23T15:31:07;23.17;;;18.83;;
61144;SDS011;47026;51.208;3.288;2022-07-23T15:33:33;22.55;;;14.40;;
61144;SDS011;47026;51.208;3.288;2022-07-23T15:36:00;17.48;;;14.63;;
61144;SDS011;47026;51.208;3.288;2022-07-23T15:38:26;19.50;;;15.18;;
61144;SDS011;47026;51.208;3.288;2022-07-23T15:40:53;20.05;;;16.08;;
61144;SDS011;47026;51.208;3.288;2022-07-23T15:43:20;20.33;;;15.07;;
61144;SDS011;47026;51.208;3.288;2022-07-23T15:45:47;17.73;;;15.68;;
61144;SDS011;47026;51.208;3.288;2022-07-23T15:48:13;16.95;;;14.25;;
61144;SDS011;47026;51.208;3.288;2022-07-23T15:50:39;19.20;;;14.93;;
61144;SDS011;47026;51.208;3.288;2022-07-23T15:53:05;17.67;;;15.73;;
61144;SDS011;47026;51.208;3.288;2022-07-23T15:55:32;19.12;;;14.75;;
61144;SDS011;47026;51.208;3.288;2022-07-23T15:57:58;20.65;;;15.20;;
61144;SDS011;47026;51.208;3.288;2022-07-23T16:00:25;17.12;;;13.85;;
61144;SDS011;47026;51.208;3.288;2022-07-23T16:02:51;20.85;;;14.85;;
61144;SDS011;47026;51.208;3.288;2022-07-23T16:05:17;19.62;;;14.98;;
61144;SDS011;47026;51.208;3.288;2022-07-23T16:07:55;20.05;;;15.65;;
61144;SDS011;47026;51.208;3.288;2022-07-23T16:10:21;19.40;;;13.60;;
61144;SDS011;47026;51.208;3.288;2022-07-23T16:12:48;19.12;;;15.55;;
61144;SDS011;47026;51.208;3.288;2022-07-23T16:15:14;21.27;;;16.65;;
61144;SDS011;47026;51.208;3.288;2022-07-23T16:17:40;22.02;;;15.25;;
61144;SDS011;47026;51.208;3.288;2022-07-23T16:20:06;21.58;;;16.05;;
61144;SDS011;47026;51.208;3.288;2022-07-23T16:22:33;21.90;;;15.43;;
61144;SDS011;47026;51.208;3.288;2022-07-23T16:25:00;20.83;;;15.40;;
61144;SDS011;47026;51.208;3.288;2022-07-23T16:27:27;19.48;;;14.95;;
61144;SDS011;47026;51.208;3.288;2022-07-23T16:29:53;22.58;;;15.20;;
61144;SDS011;47026;51.208;3.288;2022-07-23T16:32:19;20.30;;;15.30;;
61144;SDS011;47026;51.208;3.288;2022-07-23T16:34:45;19.73;;;15.15;;
61144;SDS011;47026;51.208;3.288;2022-07-23T16:37:10;24.05;;;15.10;;
61144;SDS011;47026;51.208;3.288;2022-07-23T16:39:36;18.62;;;13.48;;
61144;SDS011;47026;51.208;3.288;2022-07-23T16:42:03;20.00;;;15.88;;
61144;SDS011;47026;51.208;3.288;2022-07-23T16:44:29;20.70;;;14.63;;
61144;SDS011;47026;51.208;3.288;2022-07-23T16:46:55;20.98;;;15.77;;
61144;SDS011;47026;51.208;3.288;2022-07-23T16:49:20;20.30;;;16.25;;
61144;SDS011;47026;51.208;3.288;2022-07-23T16:51:46;24.95;;;16.33;;
61144;SDS011;47026;51.208;3.288;2022-07-23T16:54:12;18.92;;;15.07;;
61144;SDS011;47026;51.208;3.288;2022-07-23T16:56:40;20.62;;;14.93;;
61144;SDS011;47026;51.208;3.288;2022-07-23T16:59:06;22.75;;;16.20;;
61144;SDS011;47026;51.208;3.288;2022-07-23T17:01:32;21.87;;;15.93;;
61144;SDS011;47026;51.208;3.288;2022-07-23T17:03:58;23.30;;;16.60;;
61144;SDS011;47026;51.208;3.288;2022-07-23T17:06:24;22.25;;;14.68;;
61144;SDS011;47026;51.208;3.288;2022-07-23T17:08:50;21.37;;;15.02;;
61144;SDS011;47026;51.208;3.288;2022-07-23T17:11:16;22.55;;;15.55;;
61144;SDS011;47026;51.208;3.288;2022-07-23T17:13:42;22.65;;;14.35;;
61144;SDS011;47026;51.208;3.288;2022-07-23T17:16:08;18.95;;;13.75;;
61144;SDS011;47026;51.208;3.288;2022-07-23T17:18:34;19.27;;;14.05;;
61144;SDS011;47026;51.208;3.288;2022-07-23T17:21:00;22.48;;;13.80;;
61144;SDS011;47026;51.208;3.288;2022-07-23T17:23:28;17.12;;;12.05;;
61144;SDS011;47026;51.208;3.288;2022-07-23T17:25:54;18.80;;;12.23;;
61144;SDS011;47026;51.208;3.288;2022-07-23T17:28:20;18.75;;;11.68;;
61144;SDS011;47026;51.208;3.288;2022-07-23T17:30:46;18.80;;;11.45;;
61144;SDS011;47026;51.208;3.288;2022-07-23T17:33:12;16.95;;;10.48;;
61144;SDS011;47026;51.208;3.288;2022-07-23T17:35:39;16.37;;;11.00;;
61144;SDS011;47026;51.208;3.288;2022-07-23T17:38:05;13.45;;;9.60;;
61144;SDS011;47026;51.208;3.288;2022-07-23T17:40:31;15.27;;;10.40;;